Terminal Aerodrome Forecast
Issued by NWS

Home | Current Version | Previous Version | Text Only | Print | Product List | Glossary On
Versions: 1 2 3 4 5 6 7 8 9 10 11 12 13 14 15
460
FTUS41 KGYX 172322
TAFAUG
TAF
KAUG 172322Z 1800/1824 09003KT P6SM SCT120 OVC200
      TEMPO 1804/1807 2SM -SN BR BKN035 OVC090
     FM180700 05008KT 2SM -SN BR BKN025 OVC050
     FM180900 05008KT 1SM -SN BR OVC012
     FM181700 05009KT 4SM -SHSN BR BKN025 OVC040=

USA.gov is the U.S. government's official web portal to all federal, state and local government web resources and services.